Terminal Aerodrome Forecast
Issued by NWS

Current Version | Previous Version | Graphics & Text | Print | Product List | Glossary On
Versions: 1 2 3 4 5 6 7 8 9 10 11 12 13 14 15 16 17 18 19
000
FTUS41 KPBZ 170700 AAA
TAFHLG
TAF AMD
KHLG 170754Z 1708/1806 00000KT 1/2SM FG BKN035
     FM171300 00000KT 2SM BR SCT035
     FM171400 26005KT P6SM SCT050=

USA.gov is the U.S. government's official web portal to all federal, state and local government web resources and services.